createdAt,value
2022-11-01T00:00:39.292Z,98814.64
2022-11-01T00:03:12.966Z,98796.45
2022-11-01T00:05:47.770Z,98806.45
2022-11-01T00:08:21.273Z,98819.22
2022-11-01T00:10:54.671Z,98818.35
2022-11-01T00:13:28.036Z,98827.03
2022-11-01T00:16:02.038Z,98825.59
2022-11-01T00:18:35.376Z,98823.83
2022-11-01T00:21:09.168Z,98817.03
2022-11-01T00:23:42.738Z,98819.60
2022-11-01T00:26:20.112Z,98821.21
2022-11-01T00:28:52.861Z,98831.55
2022-11-01T00:31:26.443Z,98830.08
2022-11-01T00:34:01.456Z,98831.55
2022-11-01T00:36:35.468Z,98833.89
2022-11-01T00:39:08.764Z,98834.55
2022-11-01T00:41:42.157Z,98832.78
2022-11-01T00:44:15.311Z,98831.27
2022-11-01T00:46:48.654Z,98836.41
2022-11-01T00:49:22.042Z,98841.55
2022-11-01T00:51:55.392Z,98831.37
2022-11-01T00:54:28.694Z,98837.27
2022-11-01T00:57:02.085Z,98844.08
2022-11-01T00:59:40.640Z,98832.89
2022-11-01T01:02:10.701Z,98844.94
2022-11-01T01:04:44.251Z,98839.89
2022-11-01T01:07:18.494Z,98828.80
2022-11-01T01:09:51.979Z,98834.75
2022-11-01T01:12:25.226Z,98840.55
2022-11-01T01:14:58.643Z,98855.13
2022-11-01T01:17:33.789Z,98847.52
2022-11-01T01:20:09.104Z,98843.08
2022-11-01T01:22:42.888Z,98848.33
2022-11-01T01:25:16.907Z,98833.65
2022-11-01T01:27:50.335Z,98839.55
2022-11-01T01:30:23.749Z,98833.45
2022-11-01T01:32:57.145Z,98836.78
2022-11-01T01:35:30.377Z,98840.97
2022-11-01T01:38:03.966Z,98844.50
2022-11-01T01:40:38.055Z,98850.60
2022-11-01T01:43:14.606Z,98842.13
2022-11-01T01:45:48.602Z,98855.75
2022-11-01T01:48:24.902Z,98852.88
2022-11-01T01:51:02.137Z,98845.11
2022-11-01T01:53:38.414Z,98851.16
2022-11-01T01:58:57.903Z,98853.26
2022-11-01T02:01:32.615Z,98847.53
2022-11-01T02:04:08.239Z,98852.53
2022-11-01T02:06:42.269Z,98846.47
2022-11-01T02:09:17.128Z,98852.42
2022-11-01T02:11:50.654Z,98861.20
2022-11-01T02:14:26.109Z,98857.06
2022-11-01T02:17:05.638Z,98857.27
2022-11-01T02:20:18.289Z,98862.41
2022-11-01T02:23:19.084Z,98865.87
2022-11-01T02:26:03.342Z,98854.70
2022-11-01T02:28:45.250Z,98864.87
2022-11-01T02:31:32.011Z,98870.88
2022-11-01T02:34:08.734Z,98878.59
2022-11-01T02:36:44.818Z,98870.12
2022-11-01T02:39:21.630Z,98877.73
2022-11-01T02:41:57.687Z,98885.50
2022-11-01T02:44:34.009Z,98888.78
2022-11-01T02:47:12.585Z,98893.72
2022-11-01T02:49:51.738Z,98895.44
2022-11-01T02:52:29.502Z,98887.83
2022-11-01T02:55:09.970Z,98892.91
2022-11-01T02:57:48.300Z,98885.04
2022-11-01T03:00:28.841Z,98893.92
2022-11-01T03:03:13.121Z,98887.97
2022-11-01T03:05:59.404Z,98890.29
2022-11-01T03:08:35.402Z,98891.05
2022-11-01T03:11:12.140Z,98901.22
2022-11-01T03:13:56.523Z,98901.98
2022-11-01T03:16:35.189Z,98889.06
2022-11-01T03:19:28.350Z,98892.30
2022-11-01T03:22:06.262Z,98903.23
2022-11-01T03:24:44.370Z,98900.72
2022-11-01T03:27:21.023Z,98904.04
2022-11-01T03:29:57.366Z,98903.23
2022-11-01T03:32:33.998Z,98899.96
2022-11-01T03:35:11.995Z,98914.69
2022-11-01T03:37:48.238Z,98908.09
2022-11-01T03:40:23.493Z,98910.75
2022-11-01T03:42:59.776Z,98899.62
2022-11-01T03:45:34.836Z,98898.70
2022-11-01T03:48:09.352Z,98897.81
2022-11-01T03:50:44.013Z,98908.03
2022-11-01T03:53:17.297Z,98910.61
2022-11-01T03:55:51.144Z,98895.44
2022-11-01T03:58:25.122Z,98893.86
2022-11-01T04:00:58.201Z,98899.11
2022-11-01T04:03:31.674Z,98894.98
2022-11-01T04:06:05.683Z,98905.51
2022-11-01T04:08:39.466Z,98896.03
2022-11-01T04:11:12.760Z,98902.69
2022-11-01T04:13:47.857Z,98899.88
2022-11-01T04:16:39.130Z,98891.91
2022-11-01T04:19:30.225Z,98895.23
2022-11-01T04:22:04.512Z,98895.41
2022-11-01T04:24:37.949Z,98905.38
2022-11-01T04:27:11.141Z,98895.66
2022-11-01T04:29:44.759Z,98894.78
2022-11-01T04:32:18.408Z,98896.60
2022-11-01T04:34:53.181Z,98899.12
2022-11-01T04:37:26.789Z,98905.98
2022-11-01T04:40:00.163Z,98911.27
2022-11-01T04:42:35.352Z,98904.48
2022-11-01T04:45:12.776Z,98913.26
2022-11-01T04:47:52.585Z,98930.64
2022-11-01T04:50:25.956Z,98924.05
2022-11-01T04:53:01.400Z,98931.06
2022-11-01T04:55:35.095Z,98922.85
2022-11-01T04:58:10.107Z,98922.01
2022-11-01T05:00:44.104Z,98930.62
2022-11-01T05:03:17.667Z,98924.77
2022-11-01T05:05:50.967Z,98927.66
2022-11-01T05:08:24.331Z,98924.33
2022-11-01T05:10:58.129Z,98925.27
2022-11-01T05:13:31.629Z,98917.77
2022-11-01T05:16:18.770Z,98922.81
2022-11-01T05:18:43.356Z,98927.95
2022-11-01T05:21:17.294Z,98929.02
2022-11-01T05:23:50.957Z,98939.19
2022-11-01T05:26:24.514Z,98930.63
2022-11-01T05:28:57.760Z,98929.83
2022-11-01T05:31:31.547Z,98927.50
2022-11-01T05:34:04.988Z,98938.03
2022-11-01T05:36:38.671Z,98925.38
2022-11-01T05:39:12.593Z,98937.67
2022-11-01T05:41:46.116Z,98936.91
2022-11-01T05:44:19.362Z,98938.62
2022-11-01T05:46:53.050Z,98947.91
2022-11-01T05:49:26.320Z,98940.25
2022-11-01T05:52:00.079Z,98936.20
2022-11-01T05:54:33.411Z,98937.30
2022-11-01T05:57:08.679Z,98938.12
2022-11-01T05:59:42.359Z,98936.49
2022-11-01T06:02:16.319Z,98938.30
2022-11-01T06:04:49.850Z,98934.16
2022-11-01T06:07:23.371Z,98935.67
2022-11-01T06:09:56.939Z,98942.45
2022-11-01T06:12:30.227Z,98947.73
2022-11-01T06:15:03.826Z,98944.31
2022-11-01T06:17:37.322Z,98946.97
2022-11-01T06:20:12.736Z,98947.94
2022-11-01T06:22:46.343Z,98948.79
2022-11-01T06:25:20.513Z,98944.69
2022-11-01T06:27:54.422Z,98949.94
2022-11-01T06:30:27.957Z,98951.70
2022-11-01T06:33:03.633Z,98950.70
2022-11-01T06:35:37.309Z,98960.13
2022-11-01T06:38:11.096Z,98959.38
2022-11-01T06:40:44.568Z,98956.09
2022-11-01T06:43:19.649Z,98957.05
2022-11-01T06:45:53.143Z,98965.14
2022-11-01T06:48:26.368Z,98965.95
2022-11-01T06:50:59.780Z,98962.62
2022-11-01T06:53:33.551Z,98967.81
2022-11-01T06:56:08.184Z,98968.15
2022-11-01T06:58:41.814Z,98964.85
2022-11-01T07:01:15.519Z,98971.05
2022-11-01T07:03:50.303Z,98965.08
2022-11-01T07:06:26.609Z,98966.84
2022-11-01T07:09:01.094Z,98968.42
2022-11-01T07:11:35.136Z,98979.00
2022-11-01T07:14:08.948Z,98975.84
2022-11-01T07:16:42.530Z,98976.88
2022-11-01T07:19:18.778Z,98976.88
2022-11-01T07:21:52.127Z,98981.41
2022-11-01T07:24:25.404Z,98977.25
2022-11-01T07:26:58.874Z,98973.72
2022-11-01T07:29:32.202Z,98982.36
2022-11-01T07:32:05.769Z,98979.01
2022-11-01T07:34:38.945Z,98983.31
2022-11-01T07:37:12.280Z,98984.16
2022-11-01T07:39:45.772Z,98978.73
2022-11-01T07:42:19.201Z,98988.28
2022-11-01T07:44:52.548Z,98988.37
2022-11-01T07:47:26.044Z,98985.13
2022-11-01T07:49:59.487Z,98986.78
2022-11-01T07:52:34.151Z,98989.51
2022-11-01T07:55:09.588Z,98989.68
2022-11-01T07:57:43.262Z,98991.31
2022-11-01T08:00:18.843Z,98995.78
2022-11-01T08:02:52.281Z,98990.62
2022-11-01T08:05:25.590Z,98991.27
2022-11-01T08:08:00.209Z,98992.76
2022-11-01T08:10:34.829Z,98986.73
2022-11-01T08:13:10.401Z,98983.39
2022-11-01T08:15:43.910Z,98989.95
2022-11-01T08:18:18.071Z,98986.24
2022-11-01T08:20:52.133Z,98989.64
2022-11-01T08:23:25.470Z,98983.89
2022-11-01T08:26:00.028Z,98996.20
2022-11-01T08:28:33.669Z,98987.01
2022-11-01T08:31:10.273Z,98991.75
2022-11-01T08:33:43.750Z,98987.72
2022-11-01T08:36:17.893Z,98985.52
2022-11-01T08:38:51.414Z,98989.91
2022-11-01T08:41:24.782Z,98997.64
2022-11-01T08:44:00.235Z,98996.70
2022-11-01T08:46:33.803Z,98999.23
2022-11-01T08:49:07.408Z,98993.09
2022-11-01T08:51:41.075Z,98990.25
2022-11-01T08:54:14.610Z,98993.00
2022-11-01T08:56:48.294Z,98991.55
2022-11-01T08:59:21.992Z,98979.98
2022-11-01T09:01:55.420Z,98985.39
2022-11-01T09:04:28.712Z,98983.14
2022-11-01T09:07:02.080Z,98979.86
2022-11-01T09:09:35.851Z,98980.68
2022-11-01T09:12:14.183Z,98964.59
2022-11-01T09:14:45.744Z,98982.00
2022-11-01T09:17:19.658Z,98983.64
2022-11-01T09:19:53.298Z,98982.05
2022-11-01T09:22:27.234Z,98993.30
2022-11-01T09:25:00.694Z,98991.45
2022-11-01T09:27:34.793Z,99000.02
2022-11-01T09:30:10.307Z,98995.88
2022-11-01T09:32:44.018Z,98986.39
2022-11-01T09:35:18.216Z,98993.27
2022-11-01T09:37:53.589Z,98999.07
2022-11-01T09:40:27.695Z,99001.65
2022-11-01T09:43:02.223Z,98997.56
2022-11-01T09:45:37.868Z,98990.20
2022-11-01T09:48:14.162Z,98994.11
2022-11-01T09:50:48.681Z,98989.33
2022-11-01T09:53:25.098Z,98989.45
2022-11-01T09:56:04.005Z,98984.56
2022-11-01T09:58:42.788Z,98973.70
2022-11-01T10:01:23.846Z,98994.73
2022-11-01T10:04:10.127Z,98993.09
2022-11-01T10:06:46.497Z,98988.62
2022-11-01T10:09:25.194Z,98977.19
2022-11-01T10:12:05.464Z,98978.55
2022-11-01T10:14:55.062Z,98974.81
2022-11-01T10:17:33.765Z,98983.04
2022-11-01T10:20:10.763Z,98976.03
2022-11-01T10:22:46.612Z,98970.69
2022-11-01T10:25:23.998Z,98980.77
2022-11-01T10:28:03.185Z,98982.53
2022-11-01T10:30:40.863Z,98987.78
2022-11-01T10:33:26.703Z,98978.56
2022-11-01T10:36:03.300Z,98986.56
2022-11-01T10:39:16.541Z,98986.66
2022-11-01T10:41:23.874Z,98998.73
2022-11-01T10:43:59.919Z,98989.95
2022-11-01T10:46:36.374Z,98993.25
2022-11-01T10:49:14.577Z,98993.03
2022-11-01T10:51:49.802Z,98988.92
2022-11-01T10:54:26.162Z,98988.77
2022-11-01T10:57:02.656Z,98994.47
2022-11-01T10:59:40.013Z,98986.41
2022-11-01T11:02:18.954Z,99000.81
2022-11-01T11:04:52.767Z,98993.67
2022-11-01T11:07:28.837Z,98998.72
2022-11-01T11:10:03.394Z,99002.92
2022-11-01T11:12:38.697Z,99008.44
2022-11-01T11:15:19.586Z,99004.54
2022-11-01T11:17:57.105Z,99006.62
2022-11-01T11:20:31.788Z,99009.66
2022-11-01T11:23:06.055Z,98995.66
2022-11-01T11:25:41.354Z,99001.34
2022-11-01T11:28:26.660Z,99000.02
2022-11-01T11:31:02.021Z,99005.48
2022-11-01T11:33:35.426Z,98999.33
2022-11-01T11:36:10.377Z,99007.53
2022-11-01T11:38:48.534Z,99004.64
2022-11-01T11:41:31.494Z,99008.98
2022-11-01T11:44:05.199Z,99003.20
2022-11-01T11:46:38.544Z,99012.78
2022-11-01T11:49:14.626Z,99012.73
2022-11-01T11:51:49.175Z,99010.20
2022-11-01T11:54:29.038Z,99003.32
2022-11-01T11:57:12.314Z,99008.56
2022-11-01T12:02:24.616Z,99007.41
2022-11-01T12:05:03.932Z,99000.70
2022-11-01T12:07:38.655Z,99004.79
2022-11-01T12:10:30.330Z,99010.72
2022-11-01T12:13:05.349Z,99006.64
2022-11-01T12:15:41.479Z,99002.77
2022-11-01T12:18:16.872Z,99003.66
2022-11-01T12:20:53.391Z,99001.94
2022-11-01T12:23:29.487Z,98992.92
2022-11-01T12:26:05.402Z,99010.59
2022-11-01T12:28:41.126Z,99002.89
2022-11-01T12:31:18.030Z,99007.02
2022-11-01T12:33:54.726Z,99004.14
2022-11-01T12:36:31.670Z,99009.30
2022-11-01T12:39:12.075Z,99010.11
2022-11-01T12:41:48.382Z,99005.05
2022-11-01T12:44:35.067Z,99005.17
2022-11-01T12:47:12.429Z,99004.27
2022-11-01T12:49:48.986Z,99004.35
2022-11-01T12:52:27.011Z,99003.50
2022-11-01T12:55:05.968Z,99005.48
2022-11-01T12:57:40.197Z,99008.22
2022-11-01T13:00:18.515Z,99005.56
2022-11-01T13:03:00.829Z,99007.02
2022-11-01T13:05:42.201Z,99004.39
2022-11-01T13:08:19.161Z,99009.51
2022-11-01T13:10:53.995Z,99007.97
2022-11-01T13:13:30.211Z,99008.88
2022-11-01T13:16:08.843Z,99014.03
2022-11-01T13:18:46.677Z,99011.45
2022-11-01T13:21:24.733Z,99012.18
2022-11-01T13:26:44.382Z,99002.67
2022-11-01T13:29:21.134Z,98997.17
2022-11-01T13:32:01.238Z,99005.69
2022-11-01T13:34:52.465Z,99000.31
2022-11-01T13:37:31.791Z,98998.42
2022-11-01T13:40:17.501Z,98997.22
2022-11-01T13:42:54.476Z,98992.61
2022-11-01T13:46:06.182Z,98993.56
2022-11-01T13:51:34.711Z,98997.95
2022-11-01T13:54:12.208Z,98995.78
2022-11-01T13:59:35.769Z,98993.56
2022-11-01T14:03:02.050Z,98997.41
2022-11-01T14:05:41.988Z,98997.32
2022-11-01T14:08:41.125Z,99002.47
2022-11-01T14:11:16.722Z,99000.59
2022-11-01T14:13:50.304Z,99000.39
2022-11-01T14:16:24.892Z,99006.86
2022-11-01T14:19:22.188Z,99005.00
2022-11-01T14:22:00.442Z,98997.05
2022-11-01T14:24:35.665Z,98997.76
2022-11-01T14:27:24.543Z,99002.78
2022-11-01T14:29:58.703Z,98995.77
2022-11-01T14:32:34.513Z,98999.00
2022-11-01T14:35:16.103Z,98998.39
2022-11-01T14:37:53.680Z,98994.42
2022-11-01T14:40:35.133Z,98999.80
2022-11-01T14:43:13.556Z,98998.36
2022-11-01T14:45:50.034Z,98998.73
2022-11-01T14:48:28.109Z,98994.61
2022-11-01T14:51:05.093Z,98991.31
2022-11-01T14:53:41.560Z,98991.44
2022-11-01T14:56:18.653Z,98983.80
2022-11-01T14:58:52.297Z,98987.32
2022-11-01T15:01:30.746Z,98976.11
2022-11-01T15:04:05.660Z,98980.09
2022-11-01T15:06:42.920Z,98977.25
2022-11-01T15:09:22.462Z,98977.84
2022-11-01T15:11:59.981Z,98970.78
2022-11-01T15:14:37.624Z,98972.31
2022-11-01T15:17:21.195Z,98971.28
2022-11-01T15:20:00.123Z,98967.75
2022-11-01T15:22:36.656Z,98966.71
2022-11-01T15:25:18.012Z,98969.91
2022-11-01T15:27:53.012Z,98962.00
2022-11-01T15:30:29.233Z,98959.38
2022-11-01T15:33:23.239Z,98962.77
2022-11-01T15:35:59.510Z,98961.90
2022-11-01T15:41:27.349Z,98964.85
2022-11-01T15:44:01.751Z,98968.81
2022-11-01T15:46:38.922Z,98974.96
2022-11-01T15:49:14.680Z,98968.00
2022-11-01T15:51:52.931Z,98976.48
2022-11-01T15:54:33.126Z,98980.70
2022-11-01T15:57:11.537Z,98982.41
2022-11-01T15:59:50.024Z,98985.08
2022-11-01T16:02:26.461Z,98987.76
2022-11-01T16:05:01.120Z,98982.84
2022-11-01T16:07:36.167Z,98991.52
2022-11-01T16:10:18.033Z,98986.36
2022-11-01T16:12:53.649Z,98985.46
2022-11-01T16:15:30.013Z,98982.07
2022-11-01T16:18:05.995Z,98976.92
2022-11-01T16:20:43.306Z,98976.97
2022-11-01T16:23:27.172Z,98976.20
2022-11-01T16:26:09.197Z,98974.52
2022-11-01T16:28:45.129Z,98977.09
2022-11-01T16:31:26.248Z,98971.99
2022-11-01T16:34:01.145Z,98971.18
2022-11-01T16:36:46.314Z,98974.52
2022-11-01T16:39:29.802Z,98969.29
2022-11-01T16:42:04.264Z,98969.14
2022-11-01T16:44:38.049Z,98959.51
2022-11-01T16:47:14.036Z,98962.00
2022-11-01T16:49:49.911Z,98968.81
2022-11-01T16:52:23.231Z,98966.28
2022-11-01T16:54:56.657Z,98963.71
2022-11-01T16:57:30.745Z,98960.27
2022-11-01T17:00:04.690Z,98962.08
2022-11-01T17:02:39.475Z,98963.81
2022-11-01T17:05:19.477Z,98963.89
2022-11-01T17:07:52.456Z,98957.94
2022-11-01T17:10:27.492Z,98959.75
2022-11-01T17:13:02.621Z,98947.77
2022-11-01T17:15:38.778Z,98956.36
2022-11-01T17:18:17.020Z,98947.72
2022-11-01T17:20:51.627Z,98949.30
2022-11-01T17:23:27.099Z,98949.20
2022-11-01T17:26:00.291Z,98950.93
2022-11-01T17:28:33.664Z,98949.30
2022-11-01T17:31:07.299Z,98950.16
2022-11-01T17:33:40.426Z,98951.88
2022-11-01T17:36:15.976Z,98945.06
2022-11-01T17:38:50.371Z,98956.36
2022-11-01T17:41:23.458Z,98951.25
2022-11-01T17:43:56.638Z,98955.00
2022-11-01T17:46:29.742Z,98953.56
2022-11-01T17:49:02.992Z,98949.45
2022-11-01T17:51:35.927Z,98951.20
2022-11-01T17:54:09.657Z,98952.24
2022-11-01T17:56:42.672Z,98948.94
2022-11-01T17:59:15.748Z,98949.88
2022-11-01T18:01:48.944Z,98944.86
2022-11-01T18:04:22.211Z,98947.48
2022-11-01T18:06:55.343Z,98939.83
2022-11-01T18:09:28.211Z,98935.63
2022-11-01T18:12:05.646Z,98936.63
2022-11-01T18:14:45.635Z,98934.09
2022-11-01T18:17:29.802Z,98935.63
2022-11-01T18:20:07.051Z,98942.33
2022-11-01T18:22:43.271Z,98941.47
2022-11-01T18:25:23.759Z,98941.47
2022-11-01T18:27:59.177Z,98944.09
2022-11-01T18:30:32.712Z,98945.03
2022-11-01T18:33:08.538Z,98945.03
2022-11-01T18:35:45.021Z,98944.22
2022-11-01T18:38:25.943Z,98945.17
2022-11-01T18:41:02.575Z,98944.40
2022-11-01T18:43:38.069Z,98940.91
2022-11-01T18:46:25.015Z,98939.24
2022-11-01T18:48:53.726Z,98947.05
2022-11-01T18:51:28.960Z,98944.61
2022-11-01T18:54:06.601Z,98938.68
2022-11-01T18:56:41.233Z,98951.74
2022-11-01T18:59:16.576Z,98948.52
2022-11-01T19:04:36.260Z,98933.63
2022-11-01T19:07:14.159Z,98937.59
2022-11-01T19:09:47.380Z,98940.34
2022-11-01T19:12:27.835Z,98937.23
2022-11-01T19:14:59.655Z,98935.50
2022-11-01T19:17:37.293Z,98942.39
2022-11-01T19:20:22.002Z,98933.01
2022-11-01T19:22:57.826Z,98936.45
2022-11-01T19:25:34.154Z,98931.25
2022-11-01T19:28:13.526Z,98925.27
2022-11-01T19:30:51.425Z,98928.78
2022-11-01T19:33:25.803Z,98929.69
2022-11-01T19:35:59.293Z,98929.97
2022-11-01T19:38:32.793Z,98929.65
2022-11-01T19:41:06.230Z,98925.31
2022-11-01T19:43:39.292Z,98921.87
2022-11-01T19:46:15.048Z,98923.75
2022-11-01T19:48:48.836Z,98924.69
2022-11-01T19:51:24.588Z,98920.39
2022-11-01T19:53:57.771Z,98920.31
2022-11-01T19:56:31.196Z,98920.11
2022-11-01T19:59:05.080Z,98924.29
2022-11-01T20:01:41.714Z,98921.67
2022-11-01T20:04:27.925Z,98911.30
2022-11-01T20:07:04.346Z,98912.91
2022-11-01T20:09:38.957Z,98929.03
2022-11-01T20:12:12.456Z,98923.75
2022-11-01T20:14:45.865Z,98924.70
2022-11-01T20:17:18.919Z,98923.95
2022-11-01T20:19:53.817Z,98921.38
2022-11-01T20:22:28.300Z,98933.55
2022-11-01T20:25:01.603Z,98929.16
2022-11-01T20:27:34.708Z,98931.66
2022-11-01T20:30:10.778Z,98930.67
2022-11-01T20:32:44.134Z,98931.49
2022-11-01T20:35:19.151Z,98927.23
2022-11-01T20:37:52.485Z,98936.77
2022-11-01T20:40:25.786Z,98936.86
2022-11-01T20:42:59.055Z,98932.52
2022-11-01T20:45:32.216Z,98930.02
2022-11-01T20:48:07.482Z,98924.86
2022-11-01T20:50:40.606Z,98926.74
2022-11-01T20:53:14.952Z,98922.41
2022-11-01T20:55:48.423Z,98927.61
2022-11-01T20:58:21.418Z,98931.83
2022-11-01T21:00:54.933Z,98932.77
2022-11-01T21:03:29.202Z,98925.06
2022-11-01T21:06:02.653Z,98928.55
2022-11-01T21:08:36.784Z,98927.61
2022-11-01T21:11:13.964Z,98928.30
2022-11-01T21:13:47.076Z,98930.84
2022-11-01T21:16:25.726Z,98936.90
2022-11-01T21:19:02.319Z,98934.41
2022-11-01T21:21:46.518Z,98930.23
2022-11-01T21:24:30.649Z,98925.11
2022-11-01T21:30:20.955Z,98918.63
2022-11-01T21:32:54.357Z,98918.89
2022-11-01T21:35:41.014Z,98919.58
2022-11-01T21:38:51.113Z,98920.31
2022-11-01T21:44:30.369Z,98922.89
2022-11-01T21:47:12.896Z,98930.78
2022-11-01T21:49:46.331Z,98919.56
2022-11-01T21:52:20.078Z,98918.53
2022-11-01T21:54:53.503Z,98919.47
2022-11-01T21:57:26.681Z,98910.88
2022-11-01T21:59:59.774Z,98920.47
2022-11-01T22:02:33.822Z,98918.78
2022-11-01T22:05:08.723Z,98917.28
2022-11-01T22:07:41.823Z,98923.38
2022-11-01T22:10:15.108Z,98913.76
2022-11-01T22:12:48.437Z,98915.31
2022-11-01T22:15:21.636Z,98914.45
2022-11-01T22:17:54.692Z,98906.75
2022-11-01T22:20:27.511Z,98924.97
2022-11-01T22:23:00.980Z,98910.56
2022-11-01T22:25:34.297Z,98914.22
2022-11-01T22:28:07.841Z,98916.91
2022-11-01T22:30:40.894Z,98909.84
2022-11-01T22:33:14.030Z,98911.55
2022-11-01T22:35:47.051Z,98908.23
2022-11-01T22:38:23.427Z,98899.63
2022-11-01T22:40:59.662Z,98904.67
2022-11-01T22:43:34.839Z,98902.09
2022-11-01T22:46:16.176Z,98901.97
2022-11-01T22:48:50.281Z,98899.39
2022-11-01T22:51:26.742Z,98896.85
2022-11-01T22:54:01.149Z,98901.11
2022-11-01T22:56:34.257Z,98898.49
2022-11-01T22:59:11.460Z,98898.49
2022-11-01T23:01:45.587Z,98891.49
2022-11-01T23:04:23.646Z,98892.43
2022-11-01T23:06:58.459Z,98881.27
2022-11-01T23:09:31.465Z,98883.02
2022-11-01T23:12:23.339Z,98877.77
2022-11-01T23:14:56.374Z,98873.44
2022-11-01T23:17:32.513Z,98870.86
2022-11-01T23:20:07.180Z,98867.55
2022-11-01T23:22:40.267Z,98864.19
2022-11-01T23:25:13.529Z,98860.83
2022-11-01T23:27:46.999Z,98855.67
2022-11-01T23:30:21.126Z,98848.67
2022-11-01T23:32:54.312Z,98851.34
2022-11-01T23:35:27.693Z,98841.14
2022-11-01T23:38:01.011Z,98842.16
2022-11-01T23:40:34.939Z,98843.02
2022-11-01T23:43:18.317Z,98837.78
2022-11-01T23:45:52.585Z,98835.04
2022-11-01T23:48:26.295Z,98835.58
2022-11-01T23:50:59.751Z,98836.52
2022-11-01T23:53:35.872Z,98832.27
2022-11-01T23:56:10.480Z,98833.89
2022-11-01T23:58:44.024Z,98831.08
